sensor_id;sensor_type;location;lat;lon;timestamp;temperature;humidity
65291;SHT30;51893;59.754;10.110;2024-01-27T00:02:23;0.42;83.02
65291;SHT30;51893;59.754;10.110;2024-01-27T00:04:51;0.38;83.09
65291;SHT30;51893;59.754;10.110;2024-01-27T00:07:19;0.37;83.31
65291;SHT30;51893;59.754;10.110;2024-01-27T00:09:47;0.37;83.30
65291;SHT30;51893;59.754;10.110;2024-01-27T00:12:15;0.20;82.80
65291;SHT30;51893;59.754;10.110;2024-01-27T00:14:42;0.17;82.90
65291;SHT30;51893;59.754;10.110;2024-01-27T00:17:11;0.09;82.96
65291;SHT30;51893;59.754;10.110;2024-01-27T00:19:39;0.08;83.14
65291;SHT30;51893;59.754;10.110;2024-01-27T00:22:08;0.08;83.34
65291;SHT30;51893;59.754;10.110;2024-01-27T00:24:36;0.10;83.37
65291;SHT30;51893;59.754;10.110;2024-01-27T00:27:05;0.06;83.38
65291;SHT30;51893;59.754;10.110;2024-01-27T00:29:33;0.01;83.48
65291;SHT30;51893;59.754;10.110;2024-01-27T00:32:01;-0.09;83.72
65291;SHT30;51893;59.754;10.110;2024-01-27T00:34:31;-0.22;84.05
65291;SHT30;51893;59.754;10.110;2024-01-27T00:37:00;-0.25;84.28
65291;SHT30;51893;59.754;10.110;2024-01-27T00:39:28;-0.29;84.35
65291;SHT30;51893;59.754;10.110;2024-01-27T00:41:56;-0.35;84.24
65291;SHT30;51893;59.754;10.110;2024-01-27T00:44:26;-0.37;83.96
65291;SHT30;51893;59.754;10.110;2024-01-27T00:46:53;-0.46;83.72
65291;SHT30;51893;59.754;10.110;2024-01-27T00:49:21;-0.56;83.83
65291;SHT30;51893;59.754;10.110;2024-01-27T00:51:50;-0.57;84.08
65291;SHT30;51893;59.754;10.110;2024-01-27T00:54:17;-0.54;83.94
65291;SHT30;51893;59.754;10.110;2024-01-27T00:56:45;-0.70;83.49
65291;SHT30;51893;59.754;10.110;2024-01-27T00:59:13;-0.65;83.66
65291;SHT30;51893;59.754;10.110;2024-01-27T01:01:41;-0.56;83.47
65291;SHT30;51893;59.754;10.110;2024-01-27T01:04:09;-0.39;83.24
65291;SHT30;51893;59.754;10.110;2024-01-27T01:06:40;-0.34;82.75
65291;SHT30;51893;59.754;10.110;2024-01-27T01:09:09;-0.46;82.60
65291;SHT30;51893;59.754;10.110;2024-01-27T01:11:38;-0.53;83.03
65291;SHT30;51893;59.754;10.110;2024-01-27T01:14:07;-0.68;83.44
65291;SHT30;51893;59.754;10.110;2024-01-27T01:16:35;-0.83;83.89
65291;SHT30;51893;59.754;10.110;2024-01-27T01:19:03;-0.84;84.19
65291;SHT30;51893;59.754;10.110;2024-01-27T01:21:33;-0.80;84.09
65291;SHT30;51893;59.754;10.110;2024-01-27T01:24:01;-0.80;83.72
65291;SHT30;51893;59.754;10.110;2024-01-27T01:26:29;-0.79;83.74
65291;SHT30;51893;59.754;10.110;2024-01-27T01:28:57;-0.75;83.71
65291;SHT30;51893;59.754;10.110;2024-01-27T01:31:25;-0.82;83.82
65291;SHT30;51893;59.754;10.110;2024-01-27T01:33:55;-0.86;83.99
65291;SHT30;51893;59.754;10.110;2024-01-27T01:36:24;-0.89;84.05
65291;SHT30;51893;59.754;10.110;2024-01-27T01:38:53;-0.99;83.94
65291;SHT30;51893;59.754;10.110;2024-01-27T01:41:21;-1.12;83.76
65291;SHT30;51893;59.754;10.110;2024-01-27T01:43:49;-1.11;83.83
65291;SHT30;51893;59.754;10.110;2024-01-27T01:46:17;-1.10;83.63
65291;SHT30;51893;59.754;10.110;2024-01-27T01:48:45;-0.99;83.58
65291;SHT30;51893;59.754;10.110;2024-01-27T01:51:15;-0.90;83.35
65291;SHT30;51893;59.754;10.110;2024-01-27T01:53:45;-0.89;83.10
65291;SHT30;51893;59.754;10.110;2024-01-27T01:56:18;-0.92;82.96
65291;SHT30;51893;59.754;10.110;2024-01-27T01:58:46;-1.05;82.64
65291;SHT30;51893;59.754;10.110;2024-01-27T02:01:14;-1.18;82.72
65291;SHT30;51893;59.754;10.110;2024-01-27T02:03:54;-1.31;83.18
65291;SHT30;51893;59.754;10.110;2024-01-27T02:06:23;-1.34;83.59
65291;SHT30;51893;59.754;10.110;2024-01-27T02:08:52;-1.35;83.61
65291;SHT30;51893;59.754;10.110;2024-01-27T02:11:20;-1.43;83.64
65291;SHT30;51893;59.754;10.110;2024-01-27T02:13:48;-1.52;83.68
65291;SHT30;51893;59.754;10.110;2024-01-27T02:16:19;-1.60;83.66
65291;SHT30;51893;59.754;10.110;2024-01-27T02:18:48;-1.57;83.61
65291;SHT30;51893;59.754;10.110;2024-01-27T02:21:16;-1.70;83.28
65291;SHT30;51893;59.754;10.110;2024-01-27T02:23:45;-1.66;83.37
65291;SHT30;51893;59.754;10.110;2024-01-27T02:26:14;-1.72;83.46
65291;SHT30;51893;59.754;10.110;2024-01-27T02:28:43;-1.70;83.69
65291;SHT30;51893;59.754;10.110;2024-01-27T02:31:11;-1.65;83.45
65291;SHT30;51893;59.754;10.110;2024-01-27T02:33:39;-1.72;83.05
65291;SHT30;51893;59.754;10.110;2024-01-27T02:36:07;-1.75;82.84
65291;SHT30;51893;59.754;10.110;2024-01-27T02:38:35;-1.76;82.91
65291;SHT30;51893;59.754;10.110;2024-01-27T02:41:03;-1.75;82.98
65291;SHT30;51893;59.754;10.110;2024-01-27T02:43:33;-1.69;83.06
65291;SHT30;51893;59.754;10.110;2024-01-27T02:46:01;-1.59;83.13
65291;SHT30;51893;59.754;10.110;2024-01-27T02:48:29;-1.50;83.02
65291;SHT30;51893;59.754;10.110;2024-01-27T02:50:58;-1.46;82.78
65291;SHT30;51893;59.754;10.110;2024-01-27T02:53:32;-1.55;82.78
65291;SHT30;51893;59.754;10.110;2024-01-27T02:55:59;-1.63;82.76
65291;SHT30;51893;59.754;10.110;2024-01-27T02:58:27;-1.74;82.82
65291;SHT30;51893;59.754;10.110;2024-01-27T03:00:55;-1.78;82.97
65291;SHT30;51893;59.754;10.110;2024-01-27T03:03:23;-1.74;83.01
65291;SHT30;51893;59.754;10.110;2024-01-27T03:05:52;-1.75;82.98
65291;SHT30;51893;59.754;10.110;2024-01-27T03:08:20;-1.76;83.10
65291;SHT30;51893;59.754;10.110;2024-01-27T03:10:48;-1.81;83.31
65291;SHT30;51893;59.754;10.110;2024-01-27T03:13:16;-1.88;83.56
65291;SHT30;51893;59.754;10.110;2024-01-27T03:15:46;-1.97;83.77
65291;SHT30;51893;59.754;10.110;2024-01-27T03:18:14;-1.96;83.95
65291;SHT30;51893;59.754;10.110;2024-01-27T03:20:43;-1.92;83.90
65291;SHT30;51893;59.754;10.110;2024-01-27T03:23:11;-1.88;83.86
65291;SHT30;51893;59.754;10.110;2024-01-27T03:25:39;-1.91;83.54
65291;SHT30;51893;59.754;10.110;2024-01-27T03:28:08;-2.00;83.38
65291;SHT30;51893;59.754;10.110;2024-01-27T03:30:37;-2.18;83.20
65291;SHT30;51893;59.754;10.110;2024-01-27T03:33:05;-2.16;83.30
65291;SHT30;51893;59.754;10.110;2024-01-27T03:35:41;-2.15;83.32
65291;SHT30;51893;59.754;10.110;2024-01-27T03:38:09;-2.11;83.24
65291;SHT30;51893;59.754;10.110;2024-01-27T03:40:37;-2.13;83.18
65291;SHT30;51893;59.754;10.110;2024-01-27T03:43:05;-2.14;83.15
65291;SHT30;51893;59.754;10.110;2024-01-27T03:45:33;-2.19;83.22
65291;SHT30;51893;59.754;10.110;2024-01-27T03:48:01;-2.27;83.24
65291;SHT30;51893;59.754;10.110;2024-01-27T03:50:32;-2.26;83.48
65291;SHT30;51893;59.754;10.110;2024-01-27T03:53:00;-2.29;83.37
65291;SHT30;51893;59.754;10.110;2024-01-27T03:55:28;-2.40;83.17
65291;SHT30;51893;59.754;10.110;2024-01-27T03:57:56;-2.40;83.11
65291;SHT30;51893;59.754;10.110;2024-01-27T04:00:24;-2.43;83.10
65291;SHT30;51893;59.754;10.110;2024-01-27T04:02:52;-2.42;83.14
65291;SHT30;51893;59.754;10.110;2024-01-27T04:05:20;-2.38;83.49
65291;SHT30;51893;59.754;10.110;2024-01-27T04:07:48;-2.38;83.61
65291;SHT30;51893;59.754;10.110;2024-01-27T04:10:18;-2.35;83.78
65291;SHT30;51893;59.754;10.110;2024-01-27T04:12:48;-2.38;83.98
65291;SHT30;51893;59.754;10.110;2024-01-27T04:15:16;-2.51;83.62
65291;SHT30;51893;59.754;10.110;2024-01-27T04:17:44;-2.56;83.50
65291;SHT30;51893;59.754;10.110;2024-01-27T04:20:12;-2.54;83.36
65291;SHT30;51893;59.754;10.110;2024-01-27T04:22:40;-2.44;83.41
65291;SHT30;51893;59.754;10.110;2024-01-27T04:25:09;-2.31;83.33
65291;SHT30;51893;59.754;10.110;2024-01-27T04:27:38;-2.38;83.02
65291;SHT30;51893;59.754;10.110;2024-01-27T04:30:07;-2.44;83.16
65291;SHT30;51893;59.754;10.110;2024-01-27T04:32:36;-2.49;83.49
65291;SHT30;51893;59.754;10.110;2024-01-27T04:35:08;-2.49;83.85
65291;SHT30;51893;59.754;10.110;2024-01-27T04:37:38;-2.47;83.73
65291;SHT30;51893;59.754;10.110;2024-01-27T04:40:07;-2.55;83.75
65291;SHT30;51893;59.754;10.110;2024-01-27T04:42:38;-2.50;84.02
65291;SHT30;51893;59.754;10.110;2024-01-27T04:45:07;-2.48;83.91
65291;SHT30;51893;59.754;10.110;2024-01-27T04:47:36;-2.46;83.68
65291;SHT30;51893;59.754;10.110;2024-01-27T04:50:04;-2.47;83.74
65291;SHT30;51893;59.754;10.110;2024-01-27T04:52:34;-2.45;83.54
65291;SHT30;51893;59.754;10.110;2024-01-27T04:55:02;-2.44;83.42
65291;SHT30;51893;59.754;10.110;2024-01-27T04:57:33;-2.54;83.15
65291;SHT30;51893;59.754;10.110;2024-01-27T05:00:01;-2.67;83.27
65291;SHT30;51893;59.754;10.110;2024-01-27T05:02:30;-2.81;83.41
65291;SHT30;51893;59.754;10.110;2024-01-27T05:04:58;-2.79;83.72
65291;SHT30;51893;59.754;10.110;2024-01-27T05:07:26;-2.73;83.78
65291;SHT30;51893;59.754;10.110;2024-01-27T05:09:53;-2.75;83.94
65291;SHT30;51893;59.754;10.110;2024-01-27T05:12:22;-2.67;83.93
65291;SHT30;51893;59.754;10.110;2024-01-27T05:14:50;-2.56;83.71
65291;SHT30;51893;59.754;10.110;2024-01-27T05:17:18;-2.54;83.49
65291;SHT30;51893;59.754;10.110;2024-01-27T05:19:49;-2.56;83.38
65291;SHT30;51893;59.754;10.110;2024-01-27T05:22:18;-2.69;82.92
65291;SHT30;51893;59.754;10.110;2024-01-27T05:24:46;-2.88;82.89
65291;SHT30;51893;59.754;10.110;2024-01-27T05:27:15;-2.83;83.00
65291;SHT30;51893;59.754;10.110;2024-01-27T05:29:43;-2.78;82.93
65291;SHT30;51893;59.754;10.110;2024-01-27T05:32:14;-2.74;82.80
65291;SHT30;51893;59.754;10.110;2024-01-27T05:34:41;-2.80;82.52
65291;SHT30;51893;59.754;10.110;2024-01-27T05:37:10;-2.85;82.53
65291;SHT30;51893;59.754;10.110;2024-01-27T05:39:39;-2.92;82.70
65291;SHT30;51893;59.754;10.110;2024-01-27T05:42:07;-3.00;83.23
65291;SHT30;51893;59.754;10.110;2024-01-27T05:44:35;-3.07;83.67
65291;SHT30;51893;59.754;10.110;2024-01-27T05:47:05;-2.96;83.81
65291;SHT30;51893;59.754;10.110;2024-01-27T05:49:38;-2.98;83.35
65291;SHT30;51893;59.754;10.110;2024-01-27T05:52:06;-3.10;83.06
65291;SHT30;51893;59.754;10.110;2024-01-27T05:54:34;-3.09;83.12
65291;SHT30;51893;59.754;10.110;2024-01-27T05:57:02;-3.15;83.10
65291;SHT30;51893;59.754;10.110;2024-01-27T05:59:31;-3.10;83.33
65291;SHT30;51893;59.754;10.110;2024-01-27T06:01:59;-3.03;83.28
65291;SHT30;51893;59.754;10.110;2024-01-27T06:04:27;-3.14;83.31
65291;SHT30;51893;59.754;10.110;2024-01-27T06:06:55;-3.17;83.68
65291;SHT30;51893;59.754;10.110;2024-01-27T06:09:23;-3.21;83.95
65291;SHT30;51893;59.754;10.110;2024-01-27T06:11:52;-3.12;84.35
65291;SHT30;51893;59.754;10.110;2024-01-27T06:14:20;-3.05;84.30
65291;SHT30;51893;59.754;10.110;2024-01-27T06:16:50;-3.05;84.11
65291;SHT30;51893;59.754;10.110;2024-01-27T06:19:19;-3.03;83.87
65291;SHT30;51893;59.754;10.110;2024-01-27T06:21:47;-3.02;83.61
65291;SHT30;51893;59.754;10.110;2024-01-27T06:24:16;-3.03;83.50
65291;SHT30;51893;59.754;10.110;2024-01-27T06:26:47;-3.06;83.55
65291;SHT30;51893;59.754;10.110;2024-01-27T06:29:15;-3.08;83.60
65291;SHT30;51893;59.754;10.110;2024-01-27T06:31:43;-3.16;83.53
65291;SHT30;51893;59.754;10.110;2024-01-27T06:34:11;-3.24;83.70
65291;SHT30;51893;59.754;10.110;2024-01-27T06:36:40;-3.38;83.82
65291;SHT30;51893;59.754;10.110;2024-01-27T06:39:08;-3.39;84.18
65291;SHT30;51893;59.754;10.110;2024-01-27T06:41:38;-3.39;84.18
65291;SHT30;51893;59.754;10.110;2024-01-27T06:44:06;-3.41;84.12
65291;SHT30;51893;59.754;10.110;2024-01-27T06:46:37;-3.33;84.19
65291;SHT30;51893;59.754;10.110;2024-01-27T06:49:06;-3.35;84.00
65291;SHT30;51893;59.754;10.110;2024-01-27T06:51:34;-3.40;83.97
65291;SHT30;51893;59.754;10.110;2024-01-27T06:54:03;-3.43;84.00
65291;SHT30;51893;59.754;10.110;2024-01-27T06:56:31;-3.48;84.01
65291;SHT30;51893;59.754;10.110;2024-01-27T06:59:00;-3.47;84.07
65291;SHT30;51893;59.754;10.110;2024-01-27T07:01:28;-3.44;83.95
65291;SHT30;51893;59.754;10.110;2024-01-27T07:03:56;-3.42;83.79
65291;SHT30;51893;59.754;10.110;2024-01-27T07:06:24;-3.48;83.63
65291;SHT30;51893;59.754;10.110;2024-01-27T07:08:53;-3.56;83.60
65291;SHT30;51893;59.754;10.110;2024-01-27T07:11:21;-3.71;83.59
65291;SHT30;51893;59.754;10.110;2024-01-27T07:13:49;-3.84;83.83
65291;SHT30;51893;59.754;10.110;2024-01-27T07:16:17;-3.89;84.06
65291;SHT30;51893;59.754;10.110;2024-01-27T07:18:45;-3.80;84.39
65291;SHT30;51893;59.754;10.110;2024-01-27T07:21:14;-3.73;84.41
65291;SHT30;51893;59.754;10.110;2024-01-27T07:23:44;-3.68;84.29
65291;SHT30;51893;59.754;10.110;2024-01-27T07:26:13;-3.63;84.02
65291;SHT30;51893;59.754;10.110;2024-01-27T07:28:43;-3.69;83.96
65291;SHT30;51893;59.754;10.110;2024-01-27T07:31:13;-3.73;84.11
65291;SHT30;51893;59.754;10.110;2024-01-27T07:33:42;-3.69;84.24
65291;SHT30;51893;59.754;10.110;2024-01-27T07:36:10;-3.62;84.31
65291;SHT30;51893;59.754;10.110;2024-01-27T07:38:39;-3.65;84.42
65291;SHT30;51893;59.754;10.110;2024-01-27T07:41:07;-3.62;84.57
65291;SHT30;51893;59.754;10.110;2024-01-27T07:43:35;-3.60;84.53
65291;SHT30;51893;59.754;10.110;2024-01-27T07:46:03;-3.55;84.63
65291;SHT30;51893;59.754;10.110;2024-01-27T07:48:31;-3.51;84.59
65291;SHT30;51893;59.754;10.110;2024-01-27T07:51:01;-3.36;84.62
65291;SHT30;51893;59.754;10.110;2024-01-27T07:53:31;-3.34;84.50
65291;SHT30;51893;59.754;10.110;2024-01-27T07:55:59;-3.30;84.54
65291;SHT30;51893;59.754;10.110;2024-01-27T07:58:27;-3.26;84.60
65291;SHT30;51893;59.754;10.110;2024-01-27T08:00:55;-3.24;84.71
65291;SHT30;51893;59.754;10.110;2024-01-27T08:03:23;-3.26;85.15
65291;SHT30;51893;59.754;10.110;2024-01-27T08:05:52;-3.22;85.21
65291;SHT30;51893;59.754;10.110;2024-01-27T08:08:20;-3.20;85.12
65291;SHT30;51893;59.754;10.110;2024-01-27T08:10:48;-3.15;84.93
65291;SHT30;51893;59.754;10.110;2024-01-27T08:13:16;-3.04;84.79
65291;SHT30;51893;59.754;10.110;2024-01-27T08:15:44;-2.93;84.50
65291;SHT30;51893;59.754;10.110;2024-01-27T08:18:13;-3.02;84.30
65291;SHT30;51893;59.754;10.110;2024-01-27T08:20:42;-3.06;84.34
65291;SHT30;51893;59.754;10.110;2024-01-27T08:23:10;-3.01;84.51
65291;SHT30;51893;59.754;10.110;2024-01-27T08:25:38;-2.92;84.56
65291;SHT30;51893;59.754;10.110;2024-01-27T08:28:07;-2.94;84.40
65291;SHT30;51893;59.754;10.110;2024-01-27T08:30:37;-2.88;84.35
65291;SHT30;51893;59.754;10.110;2024-01-27T08:33:06;-2.86;84.10
65291;SHT30;51893;59.754;10.110;2024-01-27T08:35:37;-2.98;84.12
65291;SHT30;51893;59.754;10.110;2024-01-27T08:38:05;-3.01;84.30
65291;SHT30;51893;59.754;10.110;2024-01-27T08:40:34;-3.05;84.28
65291;SHT30;51893;59.754;10.110;2024-01-27T08:43:03;-3.05;84.32
65291;SHT30;51893;59.754;10.110;2024-01-27T08:45:31;-2.98;84.33
65291;SHT30;51893;59.754;10.110;2024-01-27T08:48:00;-2.81;84.28
65291;SHT30;51893;59.754;10.110;2024-01-27T08:50:28;-2.65;84.08
65291;SHT30;51893;59.754;10.110;2024-01-27T08:52:56;-2.59;83.84
65291;SHT30;51893;59.754;10.110;2024-01-27T08:55:24;-2.57;83.75
65291;SHT30;51893;59.754;10.110;2024-01-27T08:57:52;-2.54;83.78
65291;SHT30;51893;59.754;10.110;2024-01-27T09:00:20;-2.47;83.90
65291;SHT30;51893;59.754;10.110;2024-01-27T09:02:48;-2.40;83.90
65291;SHT30;51893;59.754;10.110;2024-01-27T09:05:17;-2.41;83.82
65291;SHT30;51893;59.754;10.110;2024-01-27T09:07:46;-2.39;83.94
65291;SHT30;51893;59.754;10.110;2024-01-27T09:10:14;-2.36;84.01
65291;SHT30;51893;59.754;10.110;2024-01-27T09:12:43;-2.30;84.03
65291;SHT30;51893;59.754;10.110;2024-01-27T09:15:11;-2.30;83.91
65291;SHT30;51893;59.754;10.110;2024-01-27T09:17:40;-2.35;83.96
65291;SHT30;51893;59.754;10.110;2024-01-27T09:20:11;-2.25;84.05
65291;SHT30;51893;59.754;10.110;2024-01-27T09:22:41;-2.08;83.87
65291;SHT30;51893;59.754;10.110;2024-01-27T09:25:09;-1.92;83.80
65291;SHT30;51893;59.754;10.110;2024-01-27T09:27:37;-1.74;83.71
65291;SHT30;51893;59.754;10.110;2024-01-27T09:30:05;-1.58;83.55
65291;SHT30;51893;59.754;10.110;2024-01-27T09:32:34;-1.45;83.42
65291;SHT30;51893;59.754;10.110;2024-01-27T09:35:03;-1.42;83.40
65291;SHT30;51893;59.754;10.110;2024-01-27T09:37:32;-1.34;83.41
65291;SHT30;51893;59.754;10.110;2024-01-27T09:40:01;-1.23;83.47
65291;SHT30;51893;59.754;10.110;2024-01-27T09:42:32;-1.15;83.33
65291;SHT30;51893;59.754;10.110;2024-01-27T09:45:03;-1.10;83.01
65291;SHT30;51893;59.754;10.110;2024-01-27T09:47:33;-1.14;82.89
65291;SHT30;51893;59.754;10.110;2024-01-27T09:50:02;-1.13;82.79
65291;SHT30;51893;59.754;10.110;2024-01-27T09:52:31;-1.08;82.62
65291;SHT30;51893;59.754;10.110;2024-01-27T09:54:59;-1.14;82.48
65291;SHT30;51893;59.754;10.110;2024-01-27T09:57:27;-1.18;82.50
65291;SHT30;51893;59.754;10.110;2024-01-27T09:59:57;-1.10;82.74
65291;SHT30;51893;59.754;10.110;2024-01-27T10:02:27;-0.96;82.69
65291;SHT30;51893;59.754;10.110;2024-01-27T10:04:58;-0.92;82.68
65291;SHT30;51893;59.754;10.110;2024-01-27T10:07:29;-0.85;82.70
65291;SHT30;51893;59.754;10.110;2024-01-27T10:09:59;-0.85;82.68
65291;SHT30;51893;59.754;10.110;2024-01-27T10:12:28;-0.82;82.62
65291;SHT30;51893;59.754;10.110;2024-01-27T10:14:57;-0.70;82.63
65291;SHT30;51893;59.754;10.110;2024-01-27T10:17:26;-0.66;82.47
65291;SHT30;51893;59.754;10.110;2024-01-27T10:20:00;-0.64;82.45
65291;SHT30;51893;59.754;10.110;2024-01-27T10:22:38;-0.58;82.57
65291;SHT30;51893;59.754;10.110;2024-01-27T10:25:07;-0.47;82.71
65291;SHT30;51893;59.754;10.110;2024-01-27T10:27:37;-0.39;82.60
65291;SHT30;51893;59.754;10.110;2024-01-27T10:30:06;-0.24;82.52
65291;SHT30;51893;59.754;10.110;2024-01-27T10:32:55;-0.20;82.23
65291;SHT30;51893;59.754;10.110;2024-01-27T10:35:26;-0.16;82.16
65291;SHT30;51893;59.754;10.110;2024-01-27T10:37:54;-0.01;82.05
65291;SHT30;51893;59.754;10.110;2024-01-27T10:40:26;0.14;81.80
65291;SHT30;51893;59.754;10.110;2024-01-27T10:45:39;0.47;80.89
65291;SHT30;51893;59.754;10.110;2024-01-27T10:48:09;0.47;80.81
65291;SHT30;51893;59.754;10.110;2024-01-27T10:50:40;0.44;80.70
65291;SHT30;51893;59.754;10.110;2024-01-27T10:53:21;0.42;80.98
65291;SHT30;51893;59.754;10.110;2024-01-27T10:55:55;0.44;81.22
65291;SHT30;51893;59.754;10.110;2024-01-27T10:58:26;0.43;81.33
65291;SHT30;51893;59.754;10.110;2024-01-27T11:00:56;0.43;81.51
65291;SHT30;51893;59.754;10.110;2024-01-27T11:03:26;0.47;81.56
65291;SHT30;51893;59.754;10.110;2024-01-27T11:05:57;0.35;81.25
65291;SHT30;51893;59.754;10.110;2024-01-27T11:08:27;0.16;81.12
65291;SHT30;51893;59.754;10.110;2024-01-27T11:10:58;0.03;81.08
65291;SHT30;51893;59.754;10.110;2024-01-27T11:13:28;0.06;81.43
65291;SHT30;51893;59.754;10.110;2024-01-27T11:15:59;0.08;81.39
65291;SHT30;51893;59.754;10.110;2024-01-27T11:18:28;0.08;81.64
65291;SHT30;51893;59.754;10.110;2024-01-27T11:20:58;-0.02;81.68
65291;SHT30;51893;59.754;10.110;2024-01-27T11:23:31;-0.14;81.81
65291;SHT30;51893;59.754;10.110;2024-01-27T11:26:02;-0.19;81.83
65291;SHT30;51893;59.754;10.110;2024-01-27T11:28:36;-0.25;81.91
65291;SHT30;51893;59.754;10.110;2024-01-27T11:31:06;-0.29;82.15
65291;SHT30;51893;59.754;10.110;2024-01-27T11:33:42;-0.24;82.51
65291;SHT30;51893;59.754;10.110;2024-01-27T11:36:18;-0.08;82.69
65291;SHT30;51893;59.754;10.110;2024-01-27T11:38:51;0.05;82.60
65291;SHT30;51893;59.754;10.110;2024-01-27T11:41:24;0.06;82.55
65291;SHT30;51893;59.754;10.110;2024-01-27T11:43:59;0.05;82.44
65291;SHT30;51893;59.754;10.110;2024-01-27T11:46:27;0.03;82.42
65291;SHT30;51893;59.754;10.110;2024-01-27T11:48:56;-0.07;82.42
65291;SHT30;51893;59.754;10.110;2024-01-27T11:51:24;-0.13;82.57
65291;SHT30;51893;59.754;10.110;2024-01-27T11:53:53;-0.10;82.81
65291;SHT30;51893;59.754;10.110;2024-01-27T11:56:21;-0.03;82.93
65291;SHT30;51893;59.754;10.110;2024-01-27T11:58:50;0.00;82.96
65291;SHT30;51893;59.754;10.110;2024-01-27T12:01:18;0.11;83.12
65291;SHT30;51893;59.754;10.110;2024-01-27T12:03:46;0.21;82.98
65291;SHT30;51893;59.754;10.110;2024-01-27T12:06:17;0.21;82.62
65291;SHT30;51893;59.754;10.110;2024-01-27T12:08:46;0.29;82.51
65291;SHT30;51893;59.754;10.110;2024-01-27T12:11:17;0.40;82.31
65291;SHT30;51893;59.754;10.110;2024-01-27T12:13:51;0.44;82.16
65291;SHT30;51893;59.754;10.110;2024-01-27T12:16:22;0.44;82.14
65291;SHT30;51893;59.754;10.110;2024-01-27T12:18:53;0.47;82.10
65291;SHT30;51893;59.754;10.110;2024-01-27T12:21:24;0.49;82.12
65291;SHT30;51893;59.754;10.110;2024-01-27T12:23:54;0.56;82.14
65291;SHT30;51893;59.754;10.110;2024-01-27T12:26:28;0.53;81.81
65291;SHT30;51893;59.754;10.110;2024-01-27T12:28:58;0.47;81.90
65291;SHT30;51893;59.754;10.110;2024-01-27T12:31:27;0.52;82.11
65291;SHT30;51893;59.754;10.110;2024-01-27T12:33:56;0.62;82.41
65291;SHT30;51893;59.754;10.110;2024-01-27T12:36:27;0.68;82.51
65291;SHT30;51893;59.754;10.110;2024-01-27T12:38:56;0.55;82.42
65291;SHT30;51893;59.754;10.110;2024-01-27T12:41:27;0.35;82.67
65291;SHT30;51893;59.754;10.110;2024-01-27T12:43:57;0.35;82.92
65291;SHT30;51893;59.754;10.110;2024-01-27T12:46:25;0.31;82.97
65291;SHT30;51893;59.754;10.110;2024-01-27T12:48:54;0.27;83.11
65291;SHT30;51893;59.754;10.110;2024-01-27T12:51:22;0.34;83.15
65291;SHT30;51893;59.754;10.110;2024-01-27T12:53:52;0.41;83.05
65291;SHT30;51893;59.754;10.110;2024-01-27T12:56:20;0.40;83.01
65291;SHT30;51893;59.754;10.110;2024-01-27T12:58:48;0.40;83.02
65291;SHT30;51893;59.754;10.110;2024-01-27T13:01:17;0.41;83.10
65291;SHT30;51893;59.754;10.110;2024-01-27T13:03:45;0.41;83.11
65291;SHT30;51893;59.754;10.110;2024-01-27T13:06:14;0.46;83.20
65291;SHT30;51893;59.754;10.110;2024-01-27T13:08:43;0.41;83.11
65291;SHT30;51893;59.754;10.110;2024-01-27T13:11:11;0.35;83.13
65291;SHT30;51893;59.754;10.110;2024-01-27T13:13:41;0.30;83.18
65291;SHT30;51893;59.754;10.110;2024-01-27T13:16:13;0.31;83.16
65291;SHT30;51893;59.754;10.110;2024-01-27T13:18:41;0.35;83.34
65291;SHT30;51893;59.754;10.110;2024-01-27T13:21:09;0.42;83.44
65291;SHT30;51893;59.754;10.110;2024-01-27T13:23:38;0.48;83.43
65291;SHT30;51893;59.754;10.110;2024-01-27T13:26:06;0.48;83.31
65291;SHT30;51893;59.754;10.110;2024-01-27T13:28:45;0.42;83.17
65291;SHT30;51893;59.754;10.110;2024-01-27T13:31:17;0.34;83.35
65291;SHT30;51893;59.754;10.110;2024-01-27T13:33:46;0.38;83.50
65291;SHT30;51893;59.754;10.110;2024-01-27T13:36:18;0.40;83.35
65291;SHT30;51893;59.754;10.110;2024-01-27T13:38:46;0.43;83.18
65291;SHT30;51893;59.754;10.110;2024-01-27T13:41:15;0.40;83.10
65291;SHT30;51893;59.754;10.110;2024-01-27T13:43:44;0.35;83.19
65291;SHT30;51893;59.754;10.110;2024-01-27T13:46:14;0.33;83.29
65291;SHT30;51893;59.754;10.110;2024-01-27T13:48:43;0.33;83.22
65291;SHT30;51893;59.754;10.110;2024-01-27T13:51:12;0.37;83.26
65291;SHT30;51893;59.754;10.110;2024-01-27T13:53:40;0.40;83.24
65291;SHT30;51893;59.754;10.110;2024-01-27T13:56:14;0.46;83.37
65291;SHT30;51893;59.754;10.110;2024-01-27T13:58:43;0.45;83.20
65291;SHT30;51893;59.754;10.110;2024-01-27T14:01:12;0.45;83.22
65291;SHT30;51893;59.754;10.110;2024-01-27T14:03:42;0.46;83.20
65291;SHT30;51893;59.754;10.110;2024-01-27T14:06:10;0.39;83.21
65291;SHT30;51893;59.754;10.110;2024-01-27T14:08:41;0.34;83.44
65291;SHT30;51893;59.754;10.110;2024-01-27T14:11:09;0.33;83.62
65291;SHT30;51893;59.754;10.110;2024-01-27T14:13:37;0.32;83.81
65291;SHT30;51893;59.754;10.110;2024-01-27T14:16:06;0.33;83.77
65291;SHT30;51893;59.754;10.110;2024-01-27T14:18:34;0.41;83.73
65291;SHT30;51893;59.754;10.110;2024-01-27T14:21:02;0.47;83.42
65291;SHT30;51893;59.754;10.110;2024-01-27T14:23:31;0.43;83.33
65291;SHT30;51893;59.754;10.110;2024-01-27T14:25:59;0.47;83.47
65291;SHT30;51893;59.754;10.110;2024-01-27T14:28:29;0.46;83.33
65291;SHT30;51893;59.754;10.110;2024-01-27T14:30:57;0.39;83.39
65291;SHT30;51893;59.754;10.110;2024-01-27T14:33:25;0.27;83.50
65291;SHT30;51893;59.754;10.110;2024-01-27T14:35:53;0.20;83.77
65291;SHT30;51893;59.754;10.110;2024-01-27T14:38:21;0.15;83.96
65291;SHT30;51893;59.754;10.110;2024-01-27T14:40:50;0.11;83.99
65291;SHT30;51893;59.754;10.110;2024-01-27T14:43:18;0.10;83.78
65291;SHT30;51893;59.754;10.110;2024-01-27T14:45:47;0.05;83.67
65291;SHT30;51893;59.754;10.110;2024-01-27T14:48:16;0.08;83.66
65291;SHT30;51893;59.754;10.110;2024-01-27T14:50:47;0.08;83.64
65291;SHT30;51893;59.754;10.110;2024-01-27T14:53:27;0.02;83.60
65291;SHT30;51893;59.754;10.110;2024-01-27T14:55:57;-0.06;84.01
65291;SHT30;51893;59.754;10.110;2024-01-27T14:58:25;-0.09;84.08
65291;SHT30;51893;59.754;10.110;2024-01-27T15:00:53;-0.13;84.07
65291;SHT30;51893;59.754;10.110;2024-01-27T15:03:23;-0.17;83.98
65291;SHT30;51893;59.754;10.110;2024-01-27T15:05:52;-0.18;84.03
65291;SHT30;51893;59.754;10.110;2024-01-27T15:08:21;-0.19;84.36
65291;SHT30;51893;59.754;10.110;2024-01-27T15:10:50;-0.11;84.72
65291;SHT30;51893;59.754;10.110;2024-01-27T15:13:20;-0.16;84.70
65291;SHT30;51893;59.754;10.110;2024-01-27T15:15:51;-0.17;84.75
65291;SHT30;51893;59.754;10.110;2024-01-27T15:18:19;-0.14;84.67
65291;SHT30;51893;59.754;10.110;2024-01-27T15:20:50;-0.21;84.53
65291;SHT30;51893;59.754;10.110;2024-01-27T15:23:19;-0.26;84.47
65291;SHT30;51893;59.754;10.110;2024-01-27T15:25:52;-0.25;84.25
65291;SHT30;51893;59.754;10.110;2024-01-27T15:28:20;-0.28;84.01
65291;SHT30;51893;59.754;10.110;2024-01-27T15:30:49;-0.39;83.69
65291;SHT30;51893;59.754;10.110;2024-01-27T15:33:18;-0.50;83.74
65291;SHT30;51893;59.754;10.110;2024-01-27T15:35:47;-0.52;83.91